Time;durP1;ratioP1;P1;durP2;ratioP2;P2;SDS_P1;SDS_P2;PMS_P1;PMS_P2;Temp;Humidity;BMP_temperature;BMP_pressure;BME280_temperature;BME280_humidity;BME280_pressure;Samples;Min_cycle;Max_cycle;Signal;HPM_P1;HPM_P2
2022/04/16 00:02:03;;;;;;;18.47;16.67;;;10.00;99.90;;;;;;5061304;28;20280;-87
2022/04/16 00:04:31;;;;;;;18.77;16.97;;;10.10;99.90;;;;;;5060477;28;20668;-87
2022/04/16 00:06:59;;;;;;;18.33;16.40;;;9.80;99.90;;;;;;5066791;28;20226;-88
2022/04/16 00:09:28;;;;;;;19.07;17.07;;;9.70;99.90;;;;;;5068986;28;20216;-88
2022/04/16 00:11:55;;;;;;;19.00;16.93;;;9.80;99.90;;;;;;5077056;28;20202;-85
2022/04/16 00:14:23;;;;;;;19.10;17.10;;;9.90;99.90;;;;;;5076173;28;20190;-88
2022/04/16 00:16:52;;;;;;;19.93;17.93;;;9.90;99.90;;;;;;5075681;28;20194;-88
2022/04/16 00:19:23;;;;;;;18.70;16.80;;;9.80;99.90;;;;;;5075317;28;20190;-88
2022/04/16 00:21:51;;;;;;;18.73;16.77;;;9.80;99.90;;;;;;5075546;28;20197;-89
2022/04/16 00:24:20;;;;;;;20.70;17.43;;;9.50;99.90;;;;;;5076430;28;20206;-88
2022/04/16 00:26:50;;;;;;;20.23;18.13;;;9.50;99.90;;;;;;5075650;28;20205;-88
2022/04/16 00:29:20;;;;;;;19.27;17.27;;;9.60;99.90;;;;;;5074038;28;20205;-87
2022/04/16 00:31:48;;;;;;;21.63;18.60;;;9.60;99.90;;;;;;5075975;28;20198;-88
2022/04/16 00:34:15;;;;;;;19.50;17.47;;;9.70;99.90;;;;;;5077412;28;20232;-87
2022/04/16 00:36:42;;;;;;;20.77;18.73;;;9.80;99.90;;;;;;5076809;28;20198;-87
2022/04/16 00:39:12;;;;;;;20.30;18.17;;;9.70;99.90;;;;;;5075347;28;20590;-88
2022/04/16 00:41:46;;;;;;;22.30;19.53;;;9.60;99.90;;;;;;5074885;28;20661;-88
2022/04/16 00:44:14;;;;;;;21.53;17.63;;;9.50;99.90;;;;;;5073397;28;20849;-88
2022/04/16 00:46:43;;;;;;;19.93;17.93;;;9.50;99.90;;;;;;5074733;28;20209;-87
2022/04/16 00:49:10;;;;;;;19.00;17.00;;;9.50;99.90;;;;;;5074203;28;20560;-88
2022/04/16 00:51:37;;;;;;;20.33;18.20;;;9.60;99.90;;;;;;5074768;28;20209;-88
2022/04/16 00:54:04;;;;;;;20.73;17.97;;;9.50;99.90;;;;;;5074833;28;20205;-88
2022/04/16 00:56:33;;;;;;;20.67;18.57;;;9.60;99.90;;;;;;5074724;28;20664;-88
2022/04/16 00:59:04;;;;;;;20.60;18.60;;;9.70;99.90;;;;;;5074586;28;20657;-88
2022/04/16 01:01:33;;;;;;;21.17;18.40;;;9.60;99.90;;;;;;5074685;28;20226;-88
2022/04/16 01:04:00;;;;;;;21.37;18.30;;;9.50;99.90;;;;;;5074293;28;20217;-87
2022/04/16 01:06:36;;;;;;;23.98;21.88;;;9.40;99.90;;;;;;5073309;28;20428;-88
2022/04/16 01:09:03;;;;;;;21.70;18.27;;;9.60;99.90;;;;;;5055506;28;20226;-87
2022/04/16 01:11:32;;;;;;;21.93;19.53;;;9.60;99.90;;;;;;5053026;28;20214;-87
2022/04/16 01:14:00;;;;;;;20.80;18.60;;;9.60;99.90;;;;;;5053640;28;20214;-88
2022/04/16 01:16:30;;;;;;;21.10;18.63;;;9.50;99.90;;;;;;5054047;28;20665;-88
2022/04/16 01:18:57;;;;;;;20.73;18.63;;;9.50;99.90;;;;;;5054176;28;20213;-88
2022/04/16 01:21:24;;;;;;;19.97;17.70;;;9.50;99.90;;;;;;5053953;28;20211;-87
2022/04/16 01:23:52;;;;;;;21.43;19.33;;;9.40;99.90;;;;;;5054170;28;20213;-88
2022/04/16 01:26:20;;;;;;;20.60;18.17;;;9.30;99.90;;;;;;5053872;28;20218;-87
2022/04/16 01:28:49;;;;;;;21.40;19.13;;;9.20;99.90;;;;;;5053996;28;20284;-88
2022/04/16 01:31:18;;;;;;;21.13;18.93;;;9.30;99.90;;;;;;5053753;28;20654;-88
2022/04/16 01:33:45;;;;;;;22.37;19.10;;;9.10;99.90;;;;;;5053399;28;20569;-87
2022/04/16 01:36:13;;;;;;;22.37;19.23;;;8.90;99.90;;;;;;5053838;28;20195;-88
2022/04/16 01:38:41;;;;;;;23.27;20.87;;;8.90;99.90;;;;;;5053938;28;20202;-88
2022/04/16 01:41:12;;;;;;;23.00;20.03;;;8.80;99.90;;;;;;5053478;28;20202;-87
2022/04/16 01:43:40;;;;;;;22.80;20.50;;;8.80;99.90;;;;;;5053616;28;20236;-88
2022/04/16 01:46:07;;;;;;;23.03;20.07;;;8.90;99.90;;;;;;5053794;28;20575;-88
2022/04/16 01:48:34;;;;;;;22.23;19.83;;;8.80;99.90;;;;;;5053649;28;20236;-88
2022/04/16 01:51:01;;;;;;;22.17;19.93;;;8.90;99.90;;;;;;5053572;28;20198;-88
2022/04/16 01:53:30;;;;;;;22.17;19.90;;;9.00;99.90;;;;;;5053596;28;20203;-88
2022/04/16 01:55:56;;;;;;;20.90;18.70;;;9.00;99.90;;;;;;5053504;28;20210;-88
2022/04/16 01:58:25;;;;;;;22.73;20.37;;;8.90;99.90;;;;;;5053241;28;20206;-86
2022/04/16 02:00:58;;;;;;;22.50;19.23;;;8.70;99.90;;;;;;5053329;28;20226;-88
2022/04/16 02:03:27;;;;;;;21.60;19.37;;;8.70;99.90;;;;;;5053256;28;20206;-87
2022/04/16 02:05:54;;;;;;;23.37;20.43;;;8.70;99.90;;;;;;5053863;28;20195;-88
2022/04/16 02:08:21;;;;;;;24.30;20.23;;;8.70;99.90;;;;;;5053391;28;20295;-87
2022/04/16 02:10:48;;;;;;;21.33;19.30;;;8.80;99.90;;;;;;5053078;28;20206;-88
2022/04/16 02:13:16;;;;;;;22.83;20.53;;;8.70;99.90;;;;;;5053498;28;20220;-88
2022/04/16 02:15:44;;;;;;;22.40;19.80;;;8.80;99.90;;;;;;5053494;28;20213;-88
2022/04/16 02:18:12;;;;;;;22.13;19.67;;;8.70;99.90;;;;;;5055666;28;20206;-89
2022/04/16 02:20:43;;;;;;;20.80;18.67;;;8.70;99.90;;;;;;5057020;28;20213;-89
2022/04/16 02:23:12;;;;;;;22.00;19.77;;;8.70;99.90;;;;;;5056538;28;20187;-88
2022/04/16 02:25:41;;;;;;;21.47;19.23;;;8.70;99.90;;;;;;5053533;28;20203;-88
2022/04/16 02:28:10;;;;;;;22.53;19.60;;;8.60;99.90;;;;;;5053453;28;20640;-87
2022/04/16 02:30:40;;;;;;;21.00;18.83;;;8.70;99.90;;;;;;5053392;28;20193;-88
2022/04/16 02:33:10;;;;;;;22.07;19.77;;;8.70;99.90;;;;;;5053526;28;20285;-88
2022/04/16 02:35:38;;;;;;;21.87;19.57;;;8.60;99.90;;;;;;5053168;28;20198;-88
2022/04/16 02:38:05;;;;;;;22.23;19.90;;;8.50;99.90;;;;;;5052465;28;20256;-88
2022/04/16 02:40:33;;;;;;;24.00;20.80;;;8.60;99.90;;;;;;5053170;28;20207;-88
2022/04/16 02:42:59;;;;;;;22.30;20.10;;;8.50;99.90;;;;;;5053141;28;20203;-87
2022/04/16 02:48:13;;;;;;;21.87;19.67;;;8.60;99.90;;;;;;5053285;28;20770;-87
2022/04/16 02:50:41;;;;;;;20.93;18.53;;;8.50;99.90;;;;;;5053188;28;20211;-88
2022/04/16 02:53:09;;;;;;;22.80;20.20;;;8.40;99.90;;;;;;5056832;28;20199;-88
2022/04/16 02:55:37;;;;;;;23.93;20.20;;;8.60;99.90;;;;;;5056907;28;20198;-88
2022/04/16 02:58:04;;;;;;;22.43;19.27;;;8.60;99.90;;;;;;5056083;28;20566;-88
2022/04/16 03:00:31;;;;;;;23.10;19.97;;;8.60;99.90;;;;;;5056617;28;20194;-88
2022/04/16 03:02:59;;;;;;;20.63;18.63;;;8.70;99.90;;;;;;5056745;28;20212;-88
2022/04/16 03:05:34;;;;;;;21.50;19.40;;;8.80;99.90;;;;;;5056713;28;20186;-88
2022/04/16 03:08:02;;;;;;;22.17;19.90;;;8.70;99.90;;;;;;5056634;28;20230;-88
2022/04/16 03:10:29;;;;;;;21.07;18.93;;;8.60;99.90;;;;;;5056176;28;20231;-88
2022/04/16 03:12:56;;;;;;;23.00;19.60;;;8.70;99.90;;;;;;5056899;28;20203;-88
2022/04/16 03:18:10;;;;;;;21.80;19.60;;;8.30;99.90;;;;;;5056669;28;20197;-88
2022/04/16 03:20:40;;;;;;;22.37;20.00;;;8.40;99.90;;;;;;5056378;28;20207;-88
2022/04/16 03:23:08;;;;;;;22.07;19.80;;;8.40;99.90;;;;;;5056518;28;20213;-88
2022/04/16 03:25:43;;;;;;;22.97;20.57;;;8.40;99.90;;;;;;5056455;28;20289;-88
2022/04/16 03:28:12;;;;;;;22.83;20.40;;;8.30;99.90;;;;;;5056473;28;20320;-88
2022/04/16 03:30:40;;;;;;;22.30;19.90;;;8.40;99.90;;;;;;5056325;28;20681;-88
2022/04/16 03:33:09;;;;;;;23.20;20.27;;;8.30;99.90;;;;;;5056360;28;20187;-88
2022/04/16 03:35:39;;;;;;;23.60;21.10;;;8.20;99.90;;;;;;5056147;28;20195;-88
2022/04/16 03:38:07;;;;;;;23.23;20.67;;;8.10;99.90;;;;;;5056327;28;20206;-88
2022/04/16 03:40:34;;;;;;;23.67;21.17;;;8.40;99.90;;;;;;5055517;28;20658;-88
2022/04/16 03:43:03;;;;;;;22.90;19.93;;;8.30;99.90;;;;;;5056184;28;20649;-88
2022/04/16 03:45:33;;;;;;;22.07;19.80;;;8.10;99.90;;;;;;5055855;28;20202;-88
2022/04/16 03:48:03;;;;;;;24.97;20.60;;;8.10;99.90;;;;;;5056197;28;20234;-88
2022/04/16 03:50:32;;;;;;;23.63;21.13;;;8.20;99.90;;;;;;5056198;28;20218;-86
2022/04/16 03:53:02;;;;;;;25.40;21.07;;;8.10;99.90;;;;;;5056409;28;20581;-88
2022/04/16 04:01:06;;;;;;;24.03;20.83;;;8.00;99.90;;;;;;5055849;28;20213;-88
2022/04/16 04:03:33;;;;;;;25.03;21.90;;;8.10;99.90;;;;;;5054852;28;20217;-88
2022/04/16 04:06:01;;;;;;;23.90;21.50;;;8.10;99.90;;;;;;5057611;28;20202;-86
2022/04/16 04:08:31;;;;;;;25.07;21.43;;;8.30;99.90;;;;;;5058836;28;20685;-89
2022/04/16 04:10:57;;;;;;;26.60;22.80;;;8.20;99.90;;;;;;5056976;28;20201;-88
2022/04/16 04:13:24;;;;;;;24.40;21.67;;;8.30;99.90;;;;;;5055408;28;20206;-88
2022/04/16 04:15:51;;;;;;;24.07;21.57;;;8.20;99.90;;;;;;5055760;28;20206;-88
2022/04/16 04:18:18;;;;;;;24.87;22.20;;;8.30;99.90;;;;;;5055267;28;20198;-88
2022/04/16 04:20:45;;;;;;;24.80;21.90;;;8.40;99.90;;;;;;5054934;28;20206;-88
2022/04/16 04:23:12;;;;;;;26.27;22.17;;;8.20;99.90;;;;;;5055640;28;20301;-88
2022/04/16 04:25:41;;;;;;;25.20;22.53;;;8.20;99.90;;;;;;5055380;28;20209;-88
2022/04/16 04:28:08;;;;;;;25.40;22.13;;;8.10;99.90;;;;;;5055492;28;20244;-86
2022/04/16 04:30:35;;;;;;;26.13;22.40;;;8.10;99.90;;;;;;5054007;28;20291;-88
2022/04/16 04:33:01;;;;;;;24.83;22.17;;;8.20;99.90;;;;;;5055363;28;20207;-88
2022/04/16 04:35:28;;;;;;;24.97;21.57;;;8.30;99.90;;;;;;5055105;28;20210;-88
2022/04/16 04:37:55;;;;;;;26.30;22.77;;;8.30;99.90;;;;;;5054932;28;20212;-87
2022/04/16 04:40:22;;;;;;;26.87;22.50;;;8.20;99.90;;;;;;5054906;28;20210;-87
2022/04/16 04:42:51;;;;;;;28.27;22.60;;;8.30;99.90;;;;;;5054835;28;20202;-88
2022/04/16 04:45:18;;;;;;;26.13;23.20;;;8.30;99.90;;;;;;5054472;28;20209;-87
2022/04/16 04:47:45;;;;;;;25.43;22.63;;;8.30;99.90;;;;;;5052930;28;20206;-87
2022/04/16 04:50:13;;;;;;;28.60;22.53;;;8.40;99.90;;;;;;5053392;28;20629;-87
2022/04/16 04:52:41;;;;;;;26.03;22.07;;;8.30;99.90;;;;;;5052082;28;20195;-88
2022/04/16 04:55:10;;;;;;;25.00;22.47;;;8.10;99.90;;;;;;5054560;28;20202;-88
2022/04/16 04:57:38;;;;;;;26.93;22.27;;;7.90;99.90;;;;;;5054017;28;20202;-88
2022/04/16 05:00:10;;;;;;;30.13;23.47;;;8.00;99.90;;;;;;5053604;28;20226;-89
2022/04/16 05:02:45;;;;;;;27.97;23.57;;;7.90;99.90;;;;;;5043522;28;20218;-88
2022/04/16 05:05:12;;;;;;;26.97;24.07;;;7.90;99.90;;;;;;5032930;28;20207;-89
2022/04/16 05:07:38;;;;;;;25.27;22.43;;;7.80;99.90;;;;;;5033671;28;20657;-89
2022/04/16 05:10:06;;;;;;;26.20;23.03;;;7.60;99.90;;;;;;5034102;28;20238;-89
2022/04/16 05:12:33;;;;;;;27.87;23.47;;;7.60;99.90;;;;;;5034421;28;20199;-89
2022/04/16 05:15:00;;;;;;;27.63;23.53;;;7.60;99.90;;;;;;5033951;28;20207;-88
2022/04/16 05:17:28;;;;;;;26.33;23.23;;;7.70;99.90;;;;;;5034376;28;20207;-88
2022/04/16 05:19:55;;;;;;;26.93;22.30;;;7.80;99.90;;;;;;5034244;28;20309;-89
2022/04/16 05:22:21;;;;;;;26.03;23.30;;;7.90;99.90;;;;;;5034134;28;20215;-88
2022/04/16 05:24:48;;;;;;;29.70;24.50;;;8.00;99.90;;;;;;5034064;28;20210;-88
2022/04/16 05:27:15;;;;;;;25.17;22.53;;;7.90;99.90;;;;;;5033571;28;20203;-88
2022/04/16 05:30:06;;;;;;;27.83;23.40;;;7.80;99.90;;;;;;5033889;28;20219;-87
2022/04/16 05:32:39;;;;;;;28.53;23.77;;;7.90;99.90;;;;;;5033883;28;20203;-88
2022/04/16 05:35:07;;;;;;;26.27;23.33;;;8.00;99.90;;;;;;5033669;28;20219;-88
2022/04/16 05:37:34;;;;;;;26.43;23.20;;;8.10;99.90;;;;;;5034040;28;20203;-88
2022/04/16 05:40:01;;;;;;;26.57;23.70;;;8.00;99.90;;;;;;5033617;28;20203;-88
2022/04/16 05:42:27;;;;;;;29.30;23.40;;;7.80;99.90;;;;;;5033831;28;20211;-88
2022/04/16 05:45:00;;;;;;;26.10;22.63;;;7.90;99.90;;;;;;5033850;28;20206;-88
2022/04/16 05:47:27;;;;;;;28.97;24.00;;;8.00;99.90;;;;;;5037769;28;20218;-88
2022/04/16 05:49:55;;;;;;;28.53;23.57;;;8.20;99.90;;;;;;5054012;28;20230;-90
2022/04/16 05:52:22;;;;;;;27.83;23.87;;;8.10;99.90;;;;;;5057462;28;20203;-89
2022/04/16 05:54:50;;;;;;;30.13;27.05;;;8.00;99.90;;;;;;5059530;28;20448;-88
2022/04/16 05:57:17;;;;;;;27.47;24.27;;;8.10;99.90;;;;;;5059557;28;20568;-88
2022/04/16 05:59:45;;;;;;;28.73;24.40;;;8.30;99.90;;;;;;5053729;28;20206;-88
2022/04/16 06:02:12;;;;;;;28.33;23.57;;;8.40;99.90;;;;;;5053398;28;20234;-89
2022/04/16 06:04:39;;;;;;;26.90;23.50;;;8.30;99.90;;;;;;5053177;28;20202;-89
2022/04/16 06:07:07;;;;;;;26.53;22.73;;;8.50;99.90;;;;;;5053560;28;20203;-88
2022/04/16 06:09:34;;;;;;;26.03;23.23;;;8.70;99.90;;;;;;5053457;28;20223;-87
2022/04/16 06:12:03;;;;;;;26.63;23.80;;;8.70;99.90;;;;;;5053367;28;20642;-90
2022/04/16 06:14:30;;;;;;;27.87;24.87;;;8.60;99.90;;;;;;5053311;28;20229;-89
2022/04/16 06:16:57;;;;;;;27.40;23.63;;;8.60;99.90;;;;;;5052783;28;20202;-88
2022/04/16 06:19:24;;;;;;;30.90;27.85;;;8.90;99.90;;;;;;5052193;28;20429;-86
2022/04/16 06:21:51;;;;;;;29.70;26.53;;;8.80;99.90;;;;;;5052886;28;20218;-87
2022/04/16 06:24:19;;;;;;;32.07;25.47;;;8.80;99.90;;;;;;5053073;28;20199;-86
2022/04/16 06:26:47;;;;;;;25.70;22.93;;;8.70;99.90;;;;;;5055079;28;20202;-87
2022/04/16 06:29:14;;;;;;;26.87;23.17;;;8.80;99.90;;;;;;5055342;28;20226;-88
2022/04/16 06:31:41;;;;;;;29.73;25.40;;;8.90;99.90;;;;;;5056827;28;20649;-88
2022/04/16 06:34:07;;;;;;;28.07;23.60;;;9.00;99.90;;;;;;5056765;28;20206;-87
2022/04/16 06:36:34;;;;;;;26.10;23.13;;;8.90;99.90;;;;;;5065149;28;20201;-89
2022/04/16 06:39:01;;;;;;;29.63;25.00;;;9.10;99.90;;;;;;5076452;28;20210;-88
2022/04/16 06:41:29;;;;;;;27.33;23.30;;;9.00;99.90;;;;;;5077159;28;20209;-90
2022/04/16 06:43:56;;;;;;;30.10;27.20;;;9.10;99.90;;;;;;5075870;28;20424;-89
2022/04/16 06:46:23;;;;;;;26.40;22.37;;;9.40;99.90;;;;;;5076587;28;20218;-87
2022/04/16 06:48:50;;;;;;;26.10;22.80;;;9.40;99.90;;;;;;5076661;28;20202;-88
2022/04/16 06:51:16;;;;;;;25.53;21.67;;;9.60;99.90;;;;;;5076915;28;20663;-87
2022/04/16 06:53:43;;;;;;;24.93;21.73;;;9.80;99.90;;;;;;5077058;28;20208;-89
2022/04/16 06:56:10;;;;;;;24.87;22.17;;;9.80;99.90;;;;;;5076852;28;20605;-88
2022/04/16 06:58:38;;;;;;;27.07;23.13;;;9.80;99.90;;;;;;5076838;28;20209;-88
2022/04/16 07:01:05;;;;;;;24.93;22.33;;;9.90;99.90;;;;;;5079197;28;20308;-92
2022/04/16 07:03:36;;;;;;;24.90;21.90;;;9.80;99.90;;;;;;5087720;28;20214;-93
2022/04/16 07:06:05;;;;;;;23.67;20.97;;;9.80;99.90;;;;;;5090658;28;20212;-92
2022/04/16 07:08:32;;;;;;;28.42;25.75;;;9.90;99.90;;;;;;5061044;28;20528;-93
2022/04/16 07:11:00;;;;;;;24.20;21.70;;;10.20;99.90;;;;;;5061519;28;20758;-92
2022/04/16 07:13:32;;;;;;;22.27;20.17;;;10.00;99.90;;;;;;5067837;28;20309;-91
2022/04/16 07:16:10;;;;;;;23.70;21.30;;;10.00;99.90;;;;;;5066469;28;20230;-93
2022/04/16 07:18:43;;;;;;;25.17;21.23;;;10.10;99.90;;;;;;5064586;28;20245;-92
2022/04/16 07:21:10;;;;;;;24.37;21.50;;;10.10;99.90;;;;;;5062229;28;20191;-94
2022/04/16 07:23:39;;;;;;;23.87;21.10;;;10.20;99.90;;;;;;5061399;28;20202;-93
2022/04/16 07:26:06;;;;;;;22.47;20.07;;;10.40;99.90;;;;;;5061339;28;20198;-93
2022/04/16 07:28:34;;;;;;;22.67;19.67;;;10.30;99.90;;;;;;5062230;28;20213;-93
2022/04/16 07:31:03;;;;;;;23.92;21.42;;;10.50;99.90;;;;;;5061431;28;20943;-93
2022/04/16 07:33:30;;;;;;;22.40;20.10;;;10.40;99.90;;;;;;5060518;28;20203;-91
2022/04/16 07:36:01;;;;;;;22.53;20.07;;;10.60;99.90;;;;;;5063271;28;20217;-91
2022/04/16 07:38:30;;;;;;;20.90;18.70;;;10.60;99.90;;;;;;5065974;28;20633;-91
2022/04/16 07:40:57;;;;;;;21.07;18.93;;;10.60;99.90;;;;;;5074081;28;20191;-90
2022/04/16 07:43:24;;;;;;;23.10;20.73;;;10.70;99.90;;;;;;5079383;28;20220;-90
2022/04/16 07:45:51;;;;;;;21.90;19.60;;;10.70;99.90;;;;;;5058842;28;20214;-91
2022/04/16 07:48:20;;;;;;;22.13;19.77;;;10.70;99.90;;;;;;5061273;28;20190;-91
2022/04/16 07:50:49;;;;;;;22.60;19.33;;;10.70;99.90;;;;;;5059616;28;20237;-91
2022/04/16 07:53:16;;;;;;;21.20;19.10;;;10.80;99.90;;;;;;5059290;28;20297;-91
2022/04/16 07:55:44;;;;;;;21.23;19.13;;;11.00;99.90;;;;;;5057987;28;20209;-92
2022/04/16 07:58:11;;;;;;;20.63;18.43;;;11.10;99.90;;;;;;5057826;28;20203;-91
2022/04/16 08:00:40;;;;;;;21.70;19.47;;;11.20;99.90;;;;;;5058551;28;20250;-91
2022/04/16 08:03:07;;;;;;;20.63;18.47;;;11.50;99.90;;;;;;5059890;28;20214;-91
2022/04/16 08:05:37;;;;;;;19.87;17.97;;;11.70;99.90;;;;;;5060084;28;20210;-92
2022/04/16 08:08:10;;;;;;;19.40;17.40;;;11.80;99.90;;;;;;5060652;28;20258;-90
2022/04/16 08:10:37;;;;;;;20.53;18.37;;;11.90;99.90;;;;;;5060017;28;20218;-91
2022/04/16 08:13:05;;;;;;;20.73;18.73;;;12.10;99.90;;;;;;5058114;28;20291;-93
2022/04/16 08:15:32;;;;;;;18.63;16.73;;;12.10;99.90;;;;;;5057096;28;20202;-91
2022/04/16 08:17:59;;;;;;;18.07;16.27;;;12.10;99.90;;;;;;5055158;28;20197;-91
2022/04/16 08:20:26;;;;;;;20.83;18.92;;;12.30;99.90;;;;;;5056279;28;20981;-91
2022/04/16 08:22:55;;;;;;;19.50;17.60;;;12.70;99.90;;;;;;5057868;28;20202;-90
2022/04/16 08:28:07;;;;;;;17.63;15.83;;;12.60;99.90;;;;;;5053760;28;20199;-91
2022/04/16 08:30:35;;;;;;;17.50;15.63;;;12.60;99.90;;;;;;5054829;28;20264;-91
2022/04/16 08:33:03;;;;;;;17.57;15.93;;;12.60;99.90;;;;;;5058224;28;20669;-90
2022/04/16 08:35:29;;;;;;;17.60;15.90;;;12.60;99.90;;;;;;5057695;28;20185;-90
2022/04/16 08:37:58;;;;;;;16.83;15.07;;;12.60;99.90;;;;;;5058102;28;20201;-91
2022/04/16 08:40:25;;;;;;;17.23;15.53;;;12.70;99.90;;;;;;5056742;28;20214;-90
2022/04/16 08:42:52;;;;;;;16.57;14.90;;;12.80;99.90;;;;;;5055586;28;20212;-91
2022/04/16 08:45:20;;;;;;;15.70;14.20;;;13.00;99.90;;;;;;5056703;28;20219;-90
2022/04/16 08:47:49;;;;;;;15.83;14.30;;;13.10;99.90;;;;;;5055475;28;20213;-90
2022/04/16 08:50:16;;;;;;;16.07;14.47;;;13.40;99.90;;;;;;5054086;28;20243;-90
2022/04/16 08:52:43;;;;;;;15.20;13.80;;;13.60;99.90;;;;;;5057788;28;20201;-90
2022/04/16 08:55:12;;;;;;;16.40;14.80;;;13.70;99.90;;;;;;5056014;28;20252;-90
2022/04/16 08:57:41;;;;;;;16.50;14.33;;;13.70;99.90;;;;;;5055221;28;20198;-89
2022/04/16 09:00:13;;;;;;;15.30;13.90;;;13.70;99.90;;;;;;5051842;28;20300;-89
2022/04/16 09:03:03;;;;;;;15.50;13.93;;;13.90;99.90;;;;;;5057251;28;20273;-88
2022/04/16 09:05:31;;;;;;;15.97;14.37;;;13.90;99.90;;;;;;5056966;28;20229;-89
2022/04/16 09:08:00;;;;;;;16.70;15.15;;;14.10;99.90;;;;;;5054863;28;20550;-90
2022/04/16 09:10:36;;;;;;;15.43;13.83;;;13.90;99.90;;;;;;5052738;28;20229;-89
2022/04/16 09:13:05;;;;;;;14.57;13.20;;;14.10;99.90;;;;;;5053673;28;20198;-88
2022/04/16 09:15:35;;;;;;;14.17;12.77;;;14.30;99.90;;;;;;5058991;28;20192;-89
2022/04/16 09:18:04;;;;;;;14.10;12.80;;;14.40;99.90;;;;;;5062922;28;20206;-89
2022/04/16 09:20:33;;;;;;;13.03;11.83;;;14.40;99.90;;;;;;5063458;28;20209;-88
2022/04/16 09:23:00;;;;;;;12.17;10.47;;;14.60;99.90;;;;;;5054493;28;20206;-85
2022/04/16 09:25:30;;;;;;;11.20;10.10;;;14.70;99.90;;;;;;5054590;28;20649;-86
2022/04/16 09:28:05;;;;;;;11.03;10.03;;;14.80;99.90;;;;;;5060689;28;20222;-92
2022/04/16 09:30:33;;;;;;;10.53;9.30;;;14.80;99.90;;;;;;5058267;28;20572;-93
2022/04/16 09:33:01;;;;;;;12.27;11.27;;;14.80;99.90;;;;;;5054624;28;20924;-87
2022/04/16 09:35:29;;;;;;;11.23;10.17;;;14.80;99.90;;;;;;5056548;28;20198;-81
2022/04/16 09:37:57;;;;;;;11.03;10.00;;;14.90;99.90;;;;;;5053710;28;20231;-82
2022/04/16 09:40:26;;;;;;;10.97;9.87;;;14.80;99.90;;;;;;5054266;28;20328;-88
2022/04/16 09:42:54;;;;;;;10.40;9.50;;;14.80;99.90;;;;;;5054369;28;20222;-88
2022/04/16 09:45:23;;;;;;;10.30;9.30;;;14.90;99.90;;;;;;5055438;28;20203;-87
2022/04/16 09:47:52;;;;;;;10.47;8.47;;;15.20;99.90;;;;;;5055180;28;20639;-90
2022/04/16 09:50:19;;;;;;;10.73;7.80;;;15.20;99.90;;;;;;5054571;28;20218;-89
2022/04/16 09:52:52;;;;;;;8.67;7.80;;;15.20;99.90;;;;;;5055652;28;20209;-90
2022/04/16 09:55:21;;;;;;;7.93;7.33;;;15.10;99.90;;;;;;5053412;28;20210;-91
2022/04/16 09:57:51;;;;;;;8.23;7.50;;;15.30;99.90;;;;;;5053796;28;20607;-89
2022/04/16 10:00:18;;;;;;;6.47;5.87;;;15.30;99.90;;;;;;5053891;28;20212;-88
2022/04/16 10:02:47;;;;;;;7.10;6.50;;;15.20;99.90;;;;;;5053539;28;20222;-88
2022/04/16 10:05:15;;;;;;;7.47;6.93;;;15.40;99.90;;;;;;5053909;28;20206;-87
2022/04/16 10:07:44;;;;;;;6.53;6.00;;;15.60;99.90;;;;;;5053669;28;20203;-88
2022/04/16 10:10:19;;;;;;;6.87;6.27;;;15.60;99.90;;;;;;5053482;28;20257;-88
2022/04/16 10:13:01;;;;;;;8.47;6.30;;;15.70;99.90;;;;;;5054018;28;20202;-84
2022/04/16 10:15:43;;;;;;;7.07;6.47;;;15.90;99.90;;;;;;5053174;28;20206;-85
2022/04/16 10:18:12;;;;;;;8.50;7.70;;;15.90;99.90;;;;;;5053087;28;20198;-83
2022/04/16 10:20:51;;;;;;;7.57;6.87;;;16.00;99.90;;;;;;5052922;28;20244;-85
2022/04/16 10:23:27;;;;;;;9.83;6.63;;;16.20;99.90;;;;;;5052401;28;20209;-83
2022/04/16 10:26:02;;;;;;;5.80;5.30;;;16.20;99.90;;;;;;5052737;28;20616;-84
2022/04/16 10:28:36;;;;;;;4.23;2.93;;;16.20;99.90;;;;;;5053032;28;20260;-81
2022/04/16 10:31:03;;;;;;;3.67;3.47;;;16.20;99.90;;;;;;5054452;28;20225;-79
2022/04/16 10:33:31;;;;;;;4.03;3.40;;;16.30;99.90;;;;;;5053056;28;20207;-79
2022/04/16 10:35:59;;;;;;;4.10;3.80;;;16.10;99.90;;;;;;5052065;28;20621;-79
2022/04/16 10:38:32;;;;;;;4.43;4.13;;;16.20;99.90;;;;;;5051828;28;20290;-79
2022/04/16 10:40:59;;;;;;;4.57;4.17;;;16.20;99.90;;;;;;5052618;28;20681;-80
2022/04/16 10:43:28;;;;;;;4.50;4.20;;;16.00;99.90;;;;;;5052655;28;20214;-80
2022/04/16 10:46:02;;;;;;;4.50;4.20;;;16.10;99.90;;;;;;5052702;28;20207;-83
2022/04/16 10:48:31;;;;;;;5.07;4.57;;;16.30;99.90;;;;;;5052384;28;20656;-79
2022/04/16 10:51:01;;;;;;;5.33;4.70;;;16.50;99.90;;;;;;5052498;28;20230;-79
2022/04/16 10:53:29;;;;;;;4.43;4.07;;;16.40;99.90;;;;;;5052459;28;20208;-80
2022/04/16 10:55:58;;;;;;;4.77;4.37;;;16.40;99.90;;;;;;5052758;28;20249;-79
2022/04/16 10:58:28;;;;;;;5.60;5.10;;;16.30;99.90;;;;;;5052324;28;20217;-79
2022/04/16 11:01:05;;;;;;;6.00;5.40;;;16.30;99.90;;;;;;5045277;28;20224;-80
2022/04/16 11:03:34;;;;;;;5.53;5.13;;;16.20;99.90;;;;;;5032163;28;20238;-80
2022/04/16 11:06:02;;;;;;;5.17;4.77;;;16.30;99.90;;;;;;5037924;28;20200;-80
2022/04/16 11:08:29;;;;;;;7.28;6.57;;;16.40;99.90;;;;;;5050626;28;20442;-80
2022/04/16 11:10:58;;;;;;;6.57;6.07;;;16.20;99.90;;;;;;5051547;28;20225;-83
2022/04/16 11:13:26;;;;;;;6.27;5.73;;;16.20;99.90;;;;;;5054946;28;20232;-83
2022/04/16 11:15:55;;;;;;;5.70;5.27;;;16.40;99.90;;;;;;5055231;28;20681;-82
2022/04/16 11:18:22;;;;;;;6.40;5.90;;;16.50;99.90;;;;;;5056105;28;20209;-82
2022/04/16 11:20:57;;;;;;;6.10;5.50;;;16.60;99.90;;;;;;5055806;28;20291;-81
2022/04/16 11:23:28;;;;;;;5.27;4.87;;;16.60;99.90;;;;;;5055075;28;20208;-81
2022/04/16 11:34:20;;;;;;;7.03;6.53;;;17.10;99.90;;;;;;5014770;28;20484;-75
2022/04/16 11:36:51;;;;;;;7.10;6.57;;;17.30;99.90;;;;;;5053384;28;20555;-76
2022/04/16 11:39:19;;;;;;;6.30;5.80;;;17.20;99.90;;;;;;5050996;28;20226;-76
2022/04/16 11:41:51;;;;;;;5.53;5.03;;;17.30;99.90;;;;;;5054236;28;20204;-76
2022/04/16 11:44:28;;;;;;;5.70;5.17;;;17.10;99.90;;;;;;5054802;28;20245;-78
2022/04/16 11:46:55;;;;;;;5.80;5.30;;;17.10;99.90;;;;;;5054423;28;20209;-76
2022/04/16 11:49:23;;;;;;;5.00;4.60;;;17.30;99.90;;;;;;5054165;28;20206;-75
2022/04/16 11:51:51;;;;;;;5.67;5.27;;;17.50;99.90;;;;;;5055008;28;20230;-76
2022/04/16 11:54:28;;;;;;;5.60;5.10;;;17.30;99.90;;;;;;5055006;28;20213;-76
2022/04/16 11:56:56;;;;;;;5.67;5.17;;;17.30;99.90;;;;;;5051856;28;20202;-75
2022/04/16 11:59:24;;;;;;;5.77;5.23;;;17.30;99.90;;;;;;5051843;28;20246;-77
2022/04/16 12:01:58;;;;;;;5.50;5.10;;;17.40;99.90;;;;;;5048915;28;20589;-77
2022/04/16 12:04:37;;;;;;;5.37;4.80;;;17.30;99.90;;;;;;5053955;28;20256;-76
2022/04/16 12:07:10;;;;;;;6.43;5.83;;;17.40;99.90;;;;;;5053797;28;20207;-76
2022/04/16 12:09:37;;;;;;;5.63;5.23;;;17.50;99.90;;;;;;5054210;28;20226;-75
2022/04/16 12:12:05;;;;;;;5.83;5.43;;;17.60;99.90;;;;;;5054438;28;20237;-82
2022/04/16 12:14:33;;;;;;;6.63;5.27;;;17.60;99.90;;;;;;5054559;28;20260;-77
2022/04/16 12:17:00;;;;;;;9.87;5.90;;;17.30;99.90;;;;;;5053824;28;20230;-79
2022/04/16 12:19:31;;;;;;;6.23;5.70;;;17.50;99.90;;;;;;5054266;28;20203;-77
2022/04/16 12:21:58;;;;;;;7.18;6.47;;;17.60;99.90;;;;;;5053691;28;20464;-75
2022/04/16 12:24:30;;;;;;;6.13;5.70;;;17.90;99.90;;;;;;5053604;28;20232;-75
2022/04/16 12:26:57;;;;;;;5.97;5.47;;;17.90;99.90;;;;;;5054964;28;20218;-76
2022/04/16 12:29:28;;;;;;;5.80;5.30;;;17.70;99.90;;;;;;5054574;28;20257;-82
2022/04/16 12:31:58;;;;;;;5.73;5.23;;;17.70;99.90;;;;;;5054042;28;20230;-76
2022/04/16 12:34:25;;;;;;;6.30;5.57;;;17.70;99.90;;;;;;5053679;28;20322;-77
2022/04/16 12:36:52;;;;;;;6.80;6.20;;;17.60;99.90;;;;;;5053773;28;20199;-80
2022/04/16 12:39:19;;;;;;;7.40;6.67;;;17.40;99.90;;;;;;5053232;28;20202;-79
2022/04/16 12:41:47;;;;;;;5.97;5.57;;;17.60;99.90;;;;;;5054598;28;20206;-74
2022/04/16 12:44:13;;;;;;;6.80;6.10;;;17.80;99.90;;;;;;5054503;28;20219;-83
2022/04/16 12:46:41;;;;;;;6.90;6.37;;;17.80;99.90;;;;;;5054289;28;20286;-76
2022/04/16 12:49:08;;;;;;;8.10;7.30;;;17.80;99.90;;;;;;5053856;28;20227;-76
2022/04/16 12:51:35;;;;;;;7.23;6.63;;;17.70;99.90;;;;;;5053843;28;20770;-75
2022/04/16 12:54:02;;;;;;;6.77;6.10;;;17.70;99.90;;;;;;5053859;28;20632;-76
2022/04/16 12:56:28;;;;;;;8.90;7.17;;;18.00;99.90;;;;;;5053711;28;20519;-81
2022/04/16 12:58:56;;;;;;;7.37;6.57;;;17.90;99.90;;;;;;5054014;28;20207;-77
2022/04/16 13:01:23;;;;;;;8.83;7.70;;;18.00;99.90;;;;;;5053924;28;20821;-75
2022/04/16 13:03:50;;;;;;;7.10;6.60;;;18.20;99.90;;;;;;5053251;28;20214;-76
2022/04/16 13:06:17;;;;;;;7.87;7.17;;;18.40;99.90;;;;;;5054003;28;20205;-76
2022/04/16 13:08:45;;;;;;;7.85;7.20;;;18.30;99.90;;;;;;5053244;28;20793;-76